sensor_id;sensor_type;location;lat;lon;timestamp;temperature;humidity
57242;DHT22;43095;53.302;5.786;2022-08-19T00:02:29;15.20;99.90
57242;DHT22;43095;53.302;5.786;2022-08-19T00:05:16;15.20;99.90
57242;DHT22;43095;53.302;5.786;2022-08-19T00:08:03;15.30;99.90
57242;DHT22;43095;53.302;5.786;2022-08-19T00:10:48;15.30;99.90
57242;DHT22;43095;53.302;5.786;2022-08-19T00:13:35;15.20;99.90
57242;DHT22;43095;53.302;5.786;2022-08-19T00:21:15;15.20;99.90
57242;DHT22;43095;53.302;5.786;2022-08-19T00:24:01;15.10;99.90
57242;DHT22;43095;53.302;5.786;2022-08-19T00:26:47;15.10;99.90
57242;DHT22;43095;53.302;5.786;2022-08-19T00:29:33;15.10;99.90
57242;DHT22;43095;53.302;5.786;2022-08-19T00:32:19;15.10;99.90
57242;DHT22;43095;53.302;5.786;2022-08-19T00:35:05;15.10;99.90
57242;DHT22;43095;53.302;5.786;2022-08-19T00:37:51;15.10;99.90
57242;DHT22;43095;53.302;5.786;2022-08-19T00:40:37;15.10;99.90
57242;DHT22;43095;53.302;5.786;2022-08-19T00:43:25;15.10;99.90
57242;DHT22;43095;53.302;5.786;2022-08-19T00:46:11;15.10;99.90
57242;DHT22;43095;53.302;5.786;2022-08-19T00:48:57;15.20;99.90
57242;DHT22;43095;53.302;5.786;2022-08-19T00:51:47;15.20;99.90
57242;DHT22;43095;53.302;5.786;2022-08-19T00:54:33;15.10;99.90
57242;DHT22;43095;53.302;5.786;2022-08-19T00:57:31;15.10;99.90
57242;DHT22;43095;53.302;5.786;2022-08-19T01:00:19;15.10;99.90
57242;DHT22;43095;53.302;5.786;2022-08-19T01:03:10;15.10;99.90
57242;DHT22;43095;53.302;5.786;2022-08-19T01:05:56;15.10;99.90
57242;DHT22;43095;53.302;5.786;2022-08-19T01:08:42;15.10;99.90
57242;DHT22;43095;53.302;5.786;2022-08-19T01:11:30;15.10;99.90
57242;DHT22;43095;53.302;5.786;2022-08-19T01:14:17;15.10;99.90
57242;DHT22;43095;53.302;5.786;2022-08-19T01:17:04;15.10;99.90
57242;DHT22;43095;53.302;5.786;2022-08-19T01:19:51;15.10;99.90
57242;DHT22;43095;53.302;5.786;2022-08-19T01:22:39;15.10;99.90
57242;DHT22;43095;53.302;5.786;2022-08-19T01:25:38;15.10;99.90
57242;DHT22;43095;53.302;5.786;2022-08-19T01:28:26;15.10;99.90
57242;DHT22;43095;53.302;5.786;2022-08-19T01:31:27;15.10;99.90
57242;DHT22;43095;53.302;5.786;2022-08-19T01:34:17;15.10;99.90
57242;DHT22;43095;53.302;5.786;2022-08-19T01:37:08;15.00;99.90
57242;DHT22;43095;53.302;5.786;2022-08-19T01:39:56;15.00;99.90
57242;DHT22;43095;53.302;5.786;2022-08-19T01:42:42;15.00;99.90
57242;DHT22;43095;53.302;5.786;2022-08-19T01:45:30;15.00;99.90
57242;DHT22;43095;53.302;5.786;2022-08-19T01:48:16;15.00;99.90
57242;DHT22;43095;53.302;5.786;2022-08-19T01:51:02;15.00;99.90
57242;DHT22;43095;53.302;5.786;2022-08-19T01:53:49;15.00;99.90
57242;DHT22;43095;53.302;5.786;2022-08-19T01:56:36;15.00;99.90
57242;DHT22;43095;53.302;5.786;2022-08-19T01:59:23;14.90;99.90
57242;DHT22;43095;53.302;5.786;2022-08-19T02:02:09;15.00;99.90
57242;DHT22;43095;53.302;5.786;2022-08-19T02:04:55;14.90;99.90
57242;DHT22;43095;53.302;5.786;2022-08-19T02:07:41;14.90;99.90
57242;DHT22;43095;53.302;5.786;2022-08-19T02:10:27;14.90;99.90
57242;DHT22;43095;53.302;5.786;2022-08-19T02:13:13;14.90;99.90
57242;DHT22;43095;53.302;5.786;2022-08-19T02:15:59;14.90;99.90
57242;DHT22;43095;53.302;5.786;2022-08-19T02:18:48;14.90;99.90
57242;DHT22;43095;53.302;5.786;2022-08-19T02:21:34;14.90;99.90
57242;DHT22;43095;53.302;5.786;2022-08-19T02:24:20;14.90;99.90
57242;DHT22;43095;53.302;5.786;2022-08-19T02:27:06;14.90;99.90
57242;DHT22;43095;53.302;5.786;2022-08-19T02:29:52;14.90;99.90
57242;DHT22;43095;53.302;5.786;2022-08-19T02:32:38;14.80;99.90
57242;DHT22;43095;53.302;5.786;2022-08-19T02:35:30;14.80;99.90
57242;DHT22;43095;53.302;5.786;2022-08-19T02:38:16;14.80;99.90
57242;DHT22;43095;53.302;5.786;2022-08-19T02:41:15;14.80;99.90
57242;DHT22;43095;53.302;5.786;2022-08-19T02:44:03;14.80;99.90
57242;DHT22;43095;53.302;5.786;2022-08-19T02:47:10;14.80;99.90
57242;DHT22;43095;53.302;5.786;2022-08-19T02:49:56;14.70;99.90
57242;DHT22;43095;53.302;5.786;2022-08-19T02:52:41;14.70;99.90
57242;DHT22;43095;53.302;5.786;2022-08-19T02:55:27;14.70;99.90
57242;DHT22;43095;53.302;5.786;2022-08-19T02:58:15;14.70;99.90
57242;DHT22;43095;53.302;5.786;2022-08-19T03:01:01;14.70;99.90
57242;DHT22;43095;53.302;5.786;2022-08-19T03:03:47;14.70;99.90
57242;DHT22;43095;53.302;5.786;2022-08-19T03:06:36;14.70;99.90
57242;DHT22;43095;53.302;5.786;2022-08-19T03:09:22;14.70;99.90
57242;DHT22;43095;53.302;5.786;2022-08-19T03:12:08;14.70;99.90
57242;DHT22;43095;53.302;5.786;2022-08-19T03:14:54;14.60;99.90
57242;DHT22;43095;53.302;5.786;2022-08-19T03:17:40;14.60;99.90
57242;DHT22;43095;53.302;5.786;2022-08-19T03:20:26;14.60;99.90
57242;DHT22;43095;53.302;5.786;2022-08-19T03:23:12;14.60;99.90
57242;DHT22;43095;53.302;5.786;2022-08-19T03:25:58;14.60;99.90
57242;DHT22;43095;53.302;5.786;2022-08-19T03:29:03;14.60;99.90
57242;DHT22;43095;53.302;5.786;2022-08-19T03:31:50;14.60;99.90
57242;DHT22;43095;53.302;5.786;2022-08-19T03:34:37;14.60;99.90
57242;DHT22;43095;53.302;5.786;2022-08-19T03:37:23;14.60;99.90
57242;DHT22;43095;53.302;5.786;2022-08-19T03:40:10;14.60;99.90
57242;DHT22;43095;53.302;5.786;2022-08-19T03:43:01;14.60;99.90
57242;DHT22;43095;53.302;5.786;2022-08-19T03:45:48;14.60;99.90
57242;DHT22;43095;53.302;5.786;2022-08-19T03:48:35;14.60;99.90
57242;DHT22;43095;53.302;5.786;2022-08-19T03:54:19;14.60;99.90
57242;DHT22;43095;53.302;5.786;2022-08-19T03:57:05;14.60;99.90
57242;DHT22;43095;53.302;5.786;2022-08-19T03:59:51;14.60;99.90
57242;DHT22;43095;53.302;5.786;2022-08-19T04:02:37;14.60;99.90
57242;DHT22;43095;53.302;5.786;2022-08-19T04:05:23;14.60;99.90
57242;DHT22;43095;53.302;5.786;2022-08-19T04:08:13;14.60;99.90
57242;DHT22;43095;53.302;5.786;2022-08-19T04:11:10;14.60;99.90
57242;DHT22;43095;53.302;5.786;2022-08-19T04:13:56;14.60;99.90
57242;DHT22;43095;53.302;5.786;2022-08-19T04:16:43;14.60;99.90
57242;DHT22;43095;53.302;5.786;2022-08-19T04:19:30;14.60;99.90
57242;DHT22;43095;53.302;5.786;2022-08-19T04:22:16;14.60;99.90
57242;DHT22;43095;53.302;5.786;2022-08-19T04:25:04;14.60;99.90
57242;DHT22;43095;53.302;5.786;2022-08-19T04:27:49;14.60;99.90
57242;DHT22;43095;53.302;5.786;2022-08-19T04:30:45;14.60;99.90
57242;DHT22;43095;53.302;5.786;2022-08-19T04:33:32;14.60;99.90
57242;DHT22;43095;53.302;5.786;2022-08-19T04:36:21;14.70;99.90
57242;DHT22;43095;53.302;5.786;2022-08-19T04:39:09;14.70;99.90
57242;DHT22;43095;53.302;5.786;2022-08-19T04:41:56;14.70;99.90
57242;DHT22;43095;53.302;5.786;2022-08-19T04:45:00;14.70;99.90
57242;DHT22;43095;53.302;5.786;2022-08-19T04:47:46;14.70;99.90
57242;DHT22;43095;53.302;5.786;2022-08-19T04:50:43;14.80;99.90
57242;DHT22;43095;53.302;5.786;2022-08-19T04:53:31;14.80;99.90
57242;DHT22;43095;53.302;5.786;2022-08-19T04:56:22;14.90;99.90
57242;DHT22;43095;53.302;5.786;2022-08-19T04:59:11;14.90;99.90
57242;DHT22;43095;53.302;5.786;2022-08-19T05:01:57;14.90;99.90
57242;DHT22;43095;53.302;5.786;2022-08-19T05:04:43;15.00;99.90
57242;DHT22;43095;53.302;5.786;2022-08-19T05:07:28;15.00;99.90
57242;DHT22;43095;53.302;5.786;2022-08-19T05:10:15;15.00;99.90
57242;DHT22;43095;53.302;5.786;2022-08-19T05:13:00;15.10;99.90
57242;DHT22;43095;53.302;5.786;2022-08-19T05:15:57;15.10;99.90
57242;DHT22;43095;53.302;5.786;2022-08-19T05:18:43;15.20;99.90
57242;DHT22;43095;53.302;5.786;2022-08-19T05:21:48;15.20;99.90
57242;DHT22;43095;53.302;5.786;2022-08-19T05:24:52;15.20;99.90
57242;DHT22;43095;53.302;5.786;2022-08-19T05:27:56;15.30;99.90
57242;DHT22;43095;53.302;5.786;2022-08-19T05:30:42;15.30;99.90
57242;DHT22;43095;53.302;5.786;2022-08-19T05:33:32;15.40;99.90
57242;DHT22;43095;53.302;5.786;2022-08-19T05:36:17;15.40;99.90
57242;DHT22;43095;53.302;5.786;2022-08-19T05:39:07;15.50;99.90
57242;DHT22;43095;53.302;5.786;2022-08-19T05:41:57;15.60;99.90
57242;DHT22;43095;53.302;5.786;2022-08-19T05:44:44;15.70;99.90
57242;DHT22;43095;53.302;5.786;2022-08-19T05:47:30;15.80;99.90
57242;DHT22;43095;53.302;5.786;2022-08-19T05:50:15;15.90;99.90
57242;DHT22;43095;53.302;5.786;2022-08-19T05:53:02;16.00;99.90
57242;DHT22;43095;53.302;5.786;2022-08-19T05:55:48;16.10;99.90
57242;DHT22;43095;53.302;5.786;2022-08-19T05:58:35;16.30;99.90
57242;DHT22;43095;53.302;5.786;2022-08-19T06:01:21;16.40;99.90
57242;DHT22;43095;53.302;5.786;2022-08-19T06:04:07;16.50;99.90
57242;DHT22;43095;53.302;5.786;2022-08-19T06:06:54;16.60;99.90
57242;DHT22;43095;53.302;5.786;2022-08-19T06:09:40;16.70;99.90
57242;DHT22;43095;53.302;5.786;2022-08-19T06:12:44;16.80;99.90
57242;DHT22;43095;53.302;5.786;2022-08-19T06:15:30;16.90;99.90
57242;DHT22;43095;53.302;5.786;2022-08-19T06:18:16;17.00;99.90
57242;DHT22;43095;53.302;5.786;2022-08-19T06:21:02;17.10;99.90
57242;DHT22;43095;53.302;5.786;2022-08-19T06:23:50;17.10;99.90
57242;DHT22;43095;53.302;5.786;2022-08-19T06:26:40;17.20;99.90
57242;DHT22;43095;53.302;5.786;2022-08-19T06:29:27;17.30;99.90
57242;DHT22;43095;53.302;5.786;2022-08-19T06:32:16;17.30;99.90
57242;DHT22;43095;53.302;5.786;2022-08-19T06:35:03;17.40;99.90
57242;DHT22;43095;53.302;5.786;2022-08-19T06:37:50;17.50;99.90
57242;DHT22;43095;53.302;5.786;2022-08-19T06:40:36;17.50;99.90
57242;DHT22;43095;53.302;5.786;2022-08-19T06:43:23;17.60;99.90
57242;DHT22;43095;53.302;5.786;2022-08-19T06:46:15;17.60;99.90
57242;DHT22;43095;53.302;5.786;2022-08-19T06:49:01;17.70;99.90
57242;DHT22;43095;53.302;5.786;2022-08-19T06:51:49;17.80;99.90
57242;DHT22;43095;53.302;5.786;2022-08-19T06:54:36;17.90;99.90
57242;DHT22;43095;53.302;5.786;2022-08-19T06:57:40;18.00;99.90
57242;DHT22;43095;53.302;5.786;2022-08-19T07:00:26;18.00;99.90
57242;DHT22;43095;53.302;5.786;2022-08-19T07:03:12;18.10;99.90
57242;DHT22;43095;53.302;5.786;2022-08-19T07:06:06;18.20;99.90
57242;DHT22;43095;53.302;5.786;2022-08-19T07:09:07;18.30;99.90
57242;DHT22;43095;53.302;5.786;2022-08-19T07:11:53;18.40;99.90
57242;DHT22;43095;53.302;5.786;2022-08-19T07:14:39;18.60;99.90
57242;DHT22;43095;53.302;5.786;2022-08-19T07:17:25;18.60;99.90
57242;DHT22;43095;53.302;5.786;2022-08-19T07:20:12;18.70;99.90
57242;DHT22;43095;53.302;5.786;2022-08-19T07:22:58;18.80;99.90
57242;DHT22;43095;53.302;5.786;2022-08-19T07:25:45;18.90;99.90
57242;DHT22;43095;53.302;5.786;2022-08-19T07:28:37;19.00;99.90
57242;DHT22;43095;53.302;5.786;2022-08-19T07:31:36;19.10;99.90
57242;DHT22;43095;53.302;5.786;2022-08-19T07:34:23;19.20;99.90
57242;DHT22;43095;53.302;5.786;2022-08-19T07:37:09;19.40;99.90
57242;DHT22;43095;53.302;5.786;2022-08-19T07:39:55;19.50;99.90
57242;DHT22;43095;53.302;5.786;2022-08-19T07:42:40;19.60;99.90
57242;DHT22;43095;53.302;5.786;2022-08-19T07:45:26;19.70;99.90
57242;DHT22;43095;53.302;5.786;2022-08-19T07:48:13;19.80;99.90
57242;DHT22;43095;53.302;5.786;2022-08-19T07:51:03;20.00;99.90
57242;DHT22;43095;53.302;5.786;2022-08-19T07:53:50;20.10;99.90
57242;DHT22;43095;53.302;5.786;2022-08-19T07:56:36;20.20;99.90
57242;DHT22;43095;53.302;5.786;2022-08-19T07:59:23;20.30;99.90
57242;DHT22;43095;53.302;5.786;2022-08-19T08:02:09;20.40;99.90
57242;DHT22;43095;53.302;5.786;2022-08-19T08:04:55;20.50;99.90
57242;DHT22;43095;53.302;5.786;2022-08-19T08:07:59;20.60;99.90
57242;DHT22;43095;53.302;5.786;2022-08-19T08:11:04;20.70;99.90
57242;DHT22;43095;53.302;5.786;2022-08-19T08:13:52;20.80;99.90
57242;DHT22;43095;53.302;5.786;2022-08-19T08:16:49;20.90;99.90
57242;DHT22;43095;53.302;5.786;2022-08-19T08:19:36;21.10;99.90
57242;DHT22;43095;53.302;5.786;2022-08-19T08:22:23;21.10;99.90
57242;DHT22;43095;53.302;5.786;2022-08-19T08:25:34;21.20;99.90
57242;DHT22;43095;53.302;5.786;2022-08-19T08:28:20;21.30;99.90
57242;DHT22;43095;53.302;5.786;2022-08-19T08:31:06;21.40;99.90
57242;DHT22;43095;53.302;5.786;2022-08-19T08:33:54;21.60;99.90
57242;DHT22;43095;53.302;5.786;2022-08-19T08:36:44;21.60;99.90
57242;DHT22;43095;53.302;5.786;2022-08-19T08:39:31;21.80;99.90
57242;DHT22;43095;53.302;5.786;2022-08-19T08:42:24;21.90;99.90
57242;DHT22;43095;53.302;5.786;2022-08-19T08:45:13;22.00;99.90
57242;DHT22;43095;53.302;5.786;2022-08-19T08:48:07;22.10;99.90
57242;DHT22;43095;53.302;5.786;2022-08-19T08:51:22;22.10;99.90
57242;DHT22;43095;53.302;5.786;2022-08-19T08:54:18;22.20;99.90
57242;DHT22;43095;53.302;5.786;2022-08-19T08:57:12;22.20;99.90
57242;DHT22;43095;53.302;5.786;2022-08-19T09:00:02;22.30;99.90
57242;DHT22;43095;53.302;5.786;2022-08-19T09:03:00;22.40;99.90
57242;DHT22;43095;53.302;5.786;2022-08-19T09:06:06;22.50;99.90
57242;DHT22;43095;53.302;5.786;2022-08-19T09:15:09;22.70;99.90
57242;DHT22;43095;53.302;5.786;2022-08-19T09:18:00;22.90;99.90
57242;DHT22;43095;53.302;5.786;2022-08-19T09:20:47;23.00;99.90
57242;DHT22;43095;53.302;5.786;2022-08-19T09:23:33;23.20;99.90
57242;DHT22;43095;53.302;5.786;2022-08-19T09:26:22;23.20;99.90
57242;DHT22;43095;53.302;5.786;2022-08-19T09:29:19;23.40;99.90
57242;DHT22;43095;53.302;5.786;2022-08-19T09:32:07;23.50;99.90
57242;DHT22;43095;53.302;5.786;2022-08-19T09:35:12;23.70;99.90
57242;DHT22;43095;53.302;5.786;2022-08-19T09:37:59;23.80;99.90
57242;DHT22;43095;53.302;5.786;2022-08-19T09:40:45;23.90;99.90
57242;DHT22;43095;53.302;5.786;2022-08-19T09:43:32;24.00;99.90
57242;DHT22;43095;53.302;5.786;2022-08-19T09:46:32;23.90;99.90
57242;DHT22;43095;53.302;5.786;2022-08-19T09:49:18;24.10;99.90
57242;DHT22;43095;53.302;5.786;2022-08-19T09:52:10;24.00;99.90
57242;DHT22;43095;53.302;5.786;2022-08-19T09:54:57;24.00;99.90
57242;DHT22;43095;53.302;5.786;2022-08-19T09:57:43;24.10;99.90
57242;DHT22;43095;53.302;5.786;2022-08-19T10:00:29;24.30;99.90
57242;DHT22;43095;53.302;5.786;2022-08-19T10:03:15;24.50;99.90
57242;DHT22;43095;53.302;5.786;2022-08-19T10:06:04;24.70;99.90
57242;DHT22;43095;53.302;5.786;2022-08-19T10:08:59;24.70;99.90
57242;DHT22;43095;53.302;5.786;2022-08-19T10:11:45;24.90;99.90
57242;DHT22;43095;53.302;5.786;2022-08-19T10:14:39;25.00;99.90
57242;DHT22;43095;53.302;5.786;2022-08-19T10:17:25;25.30;99.90
57242;DHT22;43095;53.302;5.786;2022-08-19T10:20:16;25.40;99.90
57242;DHT22;43095;53.302;5.786;2022-08-19T10:23:03;25.60;99.90
57242;DHT22;43095;53.302;5.786;2022-08-19T10:25:49;25.70;99.90
57242;DHT22;43095;53.302;5.786;2022-08-19T10:28:36;25.60;99.90
57242;DHT22;43095;53.302;5.786;2022-08-19T10:31:30;25.70;99.90
57242;DHT22;43095;53.302;5.786;2022-08-19T10:34:37;25.50;99.90
57242;DHT22;43095;53.302;5.786;2022-08-19T10:37:34;25.40;99.90
57242;DHT22;43095;53.302;5.786;2022-08-19T10:40:20;25.20;99.90
57242;DHT22;43095;53.302;5.786;2022-08-19T10:43:05;25.30;99.90
57242;DHT22;43095;53.302;5.786;2022-08-19T10:45:54;25.50;99.90
57242;DHT22;43095;53.302;5.786;2022-08-19T10:48:45;25.40;99.90
57242;DHT22;43095;53.302;5.786;2022-08-19T10:51:34;25.30;99.90
57242;DHT22;43095;53.302;5.786;2022-08-19T10:54:39;25.40;99.90
57242;DHT22;43095;53.302;5.786;2022-08-19T10:57:50;25.50;99.90
57242;DHT22;43095;53.302;5.786;2022-08-19T11:00:54;25.50;99.90
57242;DHT22;43095;53.302;5.786;2022-08-19T11:03:40;25.50;99.90
57242;DHT22;43095;53.302;5.786;2022-08-19T11:06:26;25.60;99.90
57242;DHT22;43095;53.302;5.786;2022-08-19T11:09:13;25.80;99.90
57242;DHT22;43095;53.302;5.786;2022-08-19T11:11:59;26.00;99.90
57242;DHT22;43095;53.302;5.786;2022-08-19T11:14:49;26.10;99.90
57242;DHT22;43095;53.302;5.786;2022-08-19T11:17:35;25.90;99.90
57242;DHT22;43095;53.302;5.786;2022-08-19T11:20:21;25.70;99.90
57242;DHT22;43095;53.302;5.786;2022-08-19T11:23:09;25.60;99.90
57242;DHT22;43095;53.302;5.786;2022-08-19T11:25:55;25.50;99.90
57242;DHT22;43095;53.302;5.786;2022-08-19T11:28:43;25.20;99.90
57242;DHT22;43095;53.302;5.786;2022-08-19T11:31:30;25.30;99.90
57242;DHT22;43095;53.302;5.786;2022-08-19T11:34:20;25.20;99.90
57242;DHT22;43095;53.302;5.786;2022-08-19T11:37:06;25.10;99.90
57242;DHT22;43095;53.302;5.786;2022-08-19T11:39:54;25.20;99.90
57242;DHT22;43095;53.302;5.786;2022-08-19T11:42:39;25.10;99.90
57242;DHT22;43095;53.302;5.786;2022-08-19T11:45:40;25.00;99.90
57242;DHT22;43095;53.302;5.786;2022-08-19T11:48:26;25.10;99.90
57242;DHT22;43095;53.302;5.786;2022-08-19T11:51:15;25.00;99.90
57242;DHT22;43095;53.302;5.786;2022-08-19T11:54:03;24.90;99.90
57242;DHT22;43095;53.302;5.786;2022-08-19T11:56:49;24.80;99.90
57242;DHT22;43095;53.302;5.786;2022-08-19T11:59:35;24.80;99.90
57242;DHT22;43095;53.302;5.786;2022-08-19T12:02:21;24.80;99.90
57242;DHT22;43095;53.302;5.786;2022-08-19T12:05:09;24.70;99.90
57242;DHT22;43095;53.302;5.786;2022-08-19T12:07:57;24.70;99.90
57242;DHT22;43095;53.302;5.786;2022-08-19T12:10:43;24.60;99.90
57242;DHT22;43095;53.302;5.786;2022-08-19T12:13:31;24.60;99.90
57242;DHT22;43095;53.302;5.786;2022-08-19T12:16:22;24.50;99.90
57242;DHT22;43095;53.302;5.786;2022-08-19T12:19:09;24.60;99.90
57242;DHT22;43095;53.302;5.786;2022-08-19T12:21:59;24.50;99.90
57242;DHT22;43095;53.302;5.786;2022-08-19T12:24:46;24.60;99.90
57242;DHT22;43095;53.302;5.786;2022-08-19T12:27:32;24.50;99.90
57242;DHT22;43095;53.302;5.786;2022-08-19T12:30:26;24.50;99.90
57242;DHT22;43095;53.302;5.786;2022-08-19T12:33:12;24.70;99.90
57242;DHT22;43095;53.302;5.786;2022-08-19T12:36:04;24.70;99.90
57242;DHT22;43095;53.302;5.786;2022-08-19T12:38:52;24.70;99.90
57242;DHT22;43095;53.302;5.786;2022-08-19T12:41:37;24.50;99.90
57242;DHT22;43095;53.302;5.786;2022-08-19T12:44:40;24.40;99.90
57242;DHT22;43095;53.302;5.786;2022-08-19T12:47:27;24.30;99.90
57242;DHT22;43095;53.302;5.786;2022-08-19T12:50:12;24.50;99.90
57242;DHT22;43095;53.302;5.786;2022-08-19T12:52:58;24.40;99.90
57242;DHT22;43095;53.302;5.786;2022-08-19T12:55:44;24.60;99.90
57242;DHT22;43095;53.302;5.786;2022-08-19T12:58:30;24.50;99.90
57242;DHT22;43095;53.302;5.786;2022-08-19T13:01:17;24.60;99.90
57242;DHT22;43095;53.302;5.786;2022-08-19T13:04:07;24.60;99.90
57242;DHT22;43095;53.302;5.786;2022-08-19T13:06:54;24.60;99.90
57242;DHT22;43095;53.302;5.786;2022-08-19T13:09:40;24.70;99.90
57242;DHT22;43095;53.302;5.786;2022-08-19T13:12:28;24.70;99.90
57242;DHT22;43095;53.302;5.786;2022-08-19T13:15:14;24.70;99.90
57242;DHT22;43095;53.302;5.786;2022-08-19T13:18:08;24.90;99.90
57242;DHT22;43095;53.302;5.786;2022-08-19T13:20:55;25.00;99.90
57242;DHT22;43095;53.302;5.786;2022-08-19T13:23:41;25.10;99.90
57242;DHT22;43095;53.302;5.786;2022-08-19T13:26:27;25.30;99.90
57242;DHT22;43095;53.302;5.786;2022-08-19T13:29:13;25.40;99.90
57242;DHT22;43095;53.302;5.786;2022-08-19T13:32:17;25.40;99.90
57242;DHT22;43095;53.302;5.786;2022-08-19T13:35:21;25.50;99.90
57242;DHT22;43095;53.302;5.786;2022-08-19T13:38:08;25.40;99.90
57242;DHT22;43095;53.302;5.786;2022-08-19T13:40:56;25.30;99.90
57242;DHT22;43095;53.302;5.786;2022-08-19T13:43:55;25.20;99.90
57242;DHT22;43095;53.302;5.786;2022-08-19T13:46:41;25.30;99.90
57242;DHT22;43095;53.302;5.786;2022-08-19T13:49:30;25.60;99.90
57242;DHT22;43095;53.302;5.786;2022-08-19T13:52:16;25.80;99.90
57242;DHT22;43095;53.302;5.786;2022-08-19T13:55:02;25.80;99.90
57242;DHT22;43095;53.302;5.786;2022-08-19T13:57:51;25.90;99.90
57242;DHT22;43095;53.302;5.786;2022-08-19T14:00:42;25.70;99.90
57242;DHT22;43095;53.302;5.786;2022-08-19T14:03:28;25.50;99.90
57242;DHT22;43095;53.302;5.786;2022-08-19T14:06:14;25.30;99.90
57242;DHT22;43095;53.302;5.786;2022-08-19T14:09:00;25.20;99.90
57242;DHT22;43095;53.302;5.786;2022-08-19T14:11:47;25.00;99.90
57242;DHT22;43095;53.302;5.786;2022-08-19T14:14:37;25.20;99.90
57242;DHT22;43095;53.302;5.786;2022-08-19T14:17:23;25.20;99.90
57242;DHT22;43095;53.302;5.786;2022-08-19T14:20:10;24.90;99.90
57242;DHT22;43095;53.302;5.786;2022-08-19T14:23:03;24.70;99.90
57242;DHT22;43095;53.302;5.786;2022-08-19T14:25:52;24.80;99.90
57242;DHT22;43095;53.302;5.786;2022-08-19T14:28:47;24.90;99.90
57242;DHT22;43095;53.302;5.786;2022-08-19T14:31:34;25.20;99.90
57242;DHT22;43095;53.302;5.786;2022-08-19T14:34:20;25.80;99.90
57242;DHT22;43095;53.302;5.786;2022-08-19T14:37:07;25.80;99.90
57242;DHT22;43095;53.302;5.786;2022-08-19T14:39:58;25.70;99.90
57242;DHT22;43095;53.302;5.786;2022-08-19T14:42:44;25.50;99.90
57242;DHT22;43095;53.302;5.786;2022-08-19T14:45:36;25.40;99.90
57242;DHT22;43095;53.302;5.786;2022-08-19T14:48:22;25.50;99.90
57242;DHT22;43095;53.302;5.786;2022-08-19T14:51:14;25.60;99.90
57242;DHT22;43095;53.302;5.786;2022-08-19T14:54:00;25.50;99.90
57242;DHT22;43095;53.302;5.786;2022-08-19T14:56:46;25.60;99.90
57242;DHT22;43095;53.302;5.786;2022-08-19T14:59:31;25.90;99.90
57242;DHT22;43095;53.302;5.786;2022-08-19T15:02:17;26.30;99.90
57242;DHT22;43095;53.302;5.786;2022-08-19T15:05:19;26.70;99.90
57242;DHT22;43095;53.302;5.786;2022-08-19T15:08:06;26.70;99.90
57242;DHT22;43095;53.302;5.786;2022-08-19T15:10:51;26.40;99.90
57242;DHT22;43095;53.302;5.786;2022-08-19T15:13:38;26.40;99.90
57242;DHT22;43095;53.302;5.786;2022-08-19T15:16:25;26.50;99.90
57242;DHT22;43095;53.302;5.786;2022-08-19T15:19:11;26.60;99.90
57242;DHT22;43095;53.302;5.786;2022-08-19T15:21:57;26.10;99.90
57242;DHT22;43095;53.302;5.786;2022-08-19T15:24:43;26.10;99.90
57242;DHT22;43095;53.302;5.786;2022-08-19T15:27:32;25.80;99.90
57242;DHT22;43095;53.302;5.786;2022-08-19T15:30:21;25.70;99.90
57242;DHT22;43095;53.302;5.786;2022-08-19T15:33:07;25.70;99.90
57242;DHT22;43095;53.302;5.786;2022-08-19T15:35:53;25.70;99.90
57242;DHT22;43095;53.302;5.786;2022-08-19T15:38:39;25.50;99.90
57242;DHT22;43095;53.302;5.786;2022-08-19T15:41:31;25.20;99.90
57242;DHT22;43095;53.302;5.786;2022-08-19T15:44:19;25.40;99.90
57242;DHT22;43095;53.302;5.786;2022-08-19T15:47:06;25.50;99.90
57242;DHT22;43095;53.302;5.786;2022-08-19T15:49:52;25.50;99.90
57242;DHT22;43095;53.302;5.786;2022-08-19T15:55:42;25.10;99.90
57242;DHT22;43095;53.302;5.786;2022-08-19T15:58:29;25.00;99.90
57242;DHT22;43095;53.302;5.786;2022-08-19T16:01:33;24.80;99.90
57242;DHT22;43095;53.302;5.786;2022-08-19T16:04:24;24.50;99.90
57242;DHT22;43095;53.302;5.786;2022-08-19T16:07:29;24.30;99.90
57242;DHT22;43095;53.302;5.786;2022-08-19T16:10:15;24.20;99.90
57242;DHT22;43095;53.302;5.786;2022-08-19T16:13:12;24.10;99.90
57242;DHT22;43095;53.302;5.786;2022-08-19T16:15:58;23.90;99.90
57242;DHT22;43095;53.302;5.786;2022-08-19T16:18:44;23.90;99.90
57242;DHT22;43095;53.302;5.786;2022-08-19T16:21:32;24.40;99.90
57242;DHT22;43095;53.302;5.786;2022-08-19T16:24:21;24.10;99.90
57242;DHT22;43095;53.302;5.786;2022-08-19T16:27:07;23.90;99.90
57242;DHT22;43095;53.302;5.786;2022-08-19T16:29:53;24.10;99.90
57242;DHT22;43095;53.302;5.786;2022-08-19T16:32:42;23.90;99.90
57242;DHT22;43095;53.302;5.786;2022-08-19T16:35:28;23.70;99.90
57242;DHT22;43095;53.302;5.786;2022-08-19T16:38:14;23.60;99.90
57242;DHT22;43095;53.302;5.786;2022-08-19T16:41:00;23.50;99.90
57242;DHT22;43095;53.302;5.786;2022-08-19T16:43:46;23.30;99.90
57242;DHT22;43095;53.302;5.786;2022-08-19T16:46:33;23.20;99.90
57242;DHT22;43095;53.302;5.786;2022-08-19T16:49:21;23.00;99.90
57242;DHT22;43095;53.302;5.786;2022-08-19T16:52:30;23.00;99.90
57242;DHT22;43095;53.302;5.786;2022-08-19T16:55:16;22.90;99.90
57242;DHT22;43095;53.302;5.786;2022-08-19T16:58:03;22.80;99.90
57242;DHT22;43095;53.302;5.786;2022-08-19T17:00:49;22.70;99.90
57242;DHT22;43095;53.302;5.786;2022-08-19T17:03:37;22.70;99.90
57242;DHT22;43095;53.302;5.786;2022-08-19T17:06:28;22.70;99.90
57242;DHT22;43095;53.302;5.786;2022-08-19T17:09:15;22.70;99.90
57242;DHT22;43095;53.302;5.786;2022-08-19T17:12:10;22.90;99.90
57242;DHT22;43095;53.302;5.786;2022-08-19T17:14:57;22.80;99.90
57242;DHT22;43095;53.302;5.786;2022-08-19T17:17:43;22.70;99.90
57242;DHT22;43095;53.302;5.786;2022-08-19T17:20:29;22.70;99.90
57242;DHT22;43095;53.302;5.786;2022-08-19T17:23:15;22.60;99.90
57242;DHT22;43095;53.302;5.786;2022-08-19T17:26:01;22.40;99.90
57242;DHT22;43095;53.302;5.786;2022-08-19T17:28:50;22.40;99.90
57242;DHT22;43095;53.302;5.786;2022-08-19T17:31:36;22.30;99.90
57242;DHT22;43095;53.302;5.786;2022-08-19T17:34:23;22.30;99.90
57242;DHT22;43095;53.302;5.786;2022-08-19T17:37:08;22.20;99.90
57242;DHT22;43095;53.302;5.786;2022-08-19T17:39:55;22.10;99.90
57242;DHT22;43095;53.302;5.786;2022-08-19T17:42:41;22.10;99.90
57242;DHT22;43095;53.302;5.786;2022-08-19T17:45:27;22.10;99.90
57242;DHT22;43095;53.302;5.786;2022-08-19T17:48:13;22.10;99.90
57242;DHT22;43095;53.302;5.786;2022-08-19T17:51:00;22.00;99.90
57242;DHT22;43095;53.302;5.786;2022-08-19T17:53:57;21.90;99.90
57242;DHT22;43095;53.302;5.786;2022-08-19T17:56:44;22.00;99.90
57242;DHT22;43095;53.302;5.786;2022-08-19T17:59:30;21.90;99.90
57242;DHT22;43095;53.302;5.786;2022-08-19T18:02:17;21.90;99.90
57242;DHT22;43095;53.302;5.786;2022-08-19T18:05:07;21.80;99.90